Time;durP1;ratioP1;P1;durP2;ratioP2;P2;SDS_P1;SDS_P2;PMS_P1;PMS_P2;Temp;Humidity;BMP_temperature;BMP_pressure;BME280_temperature;BME280_humidity;BME280_pressure;Samples;Min_cycle;Max_cycle;Signal;HPM_P1;HPM_P2
2023/10/04 00:00:15;;;;;;;2.50;1.40;;;;;;;;;;5072385;28;20970;-58
2023/10/04 00:02:44;;;;;;;2.40;1.30;;;;;;;;;;5071587;28;20433;-58
2023/10/04 00:05:14;;;;;;;3.53;2.00;;;;;;;;;;5060018;28;20453;-58
2023/10/04 00:07:42;;;;;;;3.33;1.10;;;;;;;;;;5063280;28;20457;-57
2023/10/04 00:10:11;;;;;;;4.33;1.40;;;;;;;;;;5071191;28;20496;-58
2023/10/04 00:12:39;;;;;;;2.40;1.53;;;;;;;;;;5077814;28;20515;-58
2023/10/04 00:15:09;;;;;;;3.17;1.50;;;;;;;;;;5066014;28;20440;-59
2023/10/04 00:17:37;;;;;;;2.97;1.40;;;;;;;;;;5061466;28;20480;-58
2023/10/04 00:20:08;;;;;;;2.60;1.63;;;;;;;;;;5067217;28;20591;-57
2023/10/04 00:22:36;;;;;;;2.53;1.40;;;;;;;;;;5071200;28;20449;-57
2023/10/04 00:25:08;;;;;;;4.00;1.50;;;;;;;;;;5070786;28;20437;-57
2023/10/04 00:27:37;;;;;;;3.10;1.50;;;;;;;;;;5070249;28;20441;-57
2023/10/04 00:30:10;;;;;;;3.27;1.37;;;;;;;;;;5070157;28;20464;-57
2023/10/04 00:32:37;;;;;;;2.73;0.93;;;;;;;;;;5070363;28;20478;-57
2023/10/04 00:35:08;;;;;;;2.60;1.60;;;;;;;;;;5069043;28;20448;-56
2023/10/04 00:37:36;;;;;;;3.73;1.63;;;;;;;;;;5070255;28;20554;-57
2023/10/04 00:40:09;;;;;;;2.90;1.30;;;;;;;;;;5070503;28;20464;-58
2023/10/04 00:42:38;;;;;;;2.20;1.30;;;;;;;;;;5069906;28;20460;-57
2023/10/04 00:45:06;;;;;;;2.30;1.47;;;;;;;;;;5071302;28;20537;-57
2023/10/04 00:47:34;;;;;;;2.27;1.47;;;;;;;;;;5070064;28;20476;-57
2023/10/04 00:50:14;;;;;;;2.97;1.27;;;;;;;;;;5068747;28;20468;-57
2023/10/04 00:52:43;;;;;;;2.87;1.40;;;;;;;;;;5070508;28;20445;-59
2023/10/04 00:55:11;;;;;;;2.57;1.23;;;;;;;;;;5070558;28;20487;-58
2023/10/04 00:57:39;;;;;;;7.10;1.97;;;;;;;;;;5070274;28;20508;-58
2023/10/04 01:00:09;;;;;;;2.47;1.27;;;;;;;;;;5070429;28;20463;-57
2023/10/04 01:02:37;;;;;;;2.10;1.30;;;;;;;;;;5069943;28;20535;-58
2023/10/04 01:05:06;;;;;;;2.30;1.07;;;;;;;;;;5070370;28;20472;-56
2023/10/04 01:07:34;;;;;;;2.63;1.20;;;;;;;;;;5069906;28;20947;-57
2023/10/04 01:10:02;;;;;;;3.10;1.50;;;;;;;;;;5070442;28;20460;-57
2023/10/04 01:12:29;;;;;;;2.73;1.47;;;;;;;;;;5070170;28;20799;-59
2023/10/04 01:15:28;;;;;;;3.93;2.03;;;;;;;;;;5070482;28;20466;-58
2023/10/04 01:17:45;;;;;;;4.80;1.43;;;;;;;;;;5069997;28;20471;-58
2023/10/04 01:20:16;;;;;;;3.70;1.60;;;;;;;;;;5067049;28;21084;-57
2023/10/04 01:22:45;;;;;;;2.33;1.20;;;;;;;;;;5070392;28;20538;-58
2023/10/04 01:25:12;;;;;;;2.67;1.40;;;;;;;;;;5069991;28;20490;-57
2023/10/04 01:27:41;;;;;;;2.43;1.30;;;;;;;;;;5070009;28;20947;-58
2023/10/04 01:30:13;;;;;;;4.70;1.43;;;;;;;;;;5069919;28;20896;-58
2023/10/04 01:32:40;;;;;;;3.70;1.40;;;;;;;;;;5066977;28;20449;-57
2023/10/04 01:35:11;;;;;;;3.07;1.40;;;;;;;;;;5070143;28;20992;-57
2023/10/04 01:37:39;;;;;;;2.13;1.47;;;;;;;;;;5069601;28;20812;-57
2023/10/04 01:40:12;;;;;;;3.10;1.23;;;;;;;;;;5069654;28;20468;-57
2023/10/04 01:42:41;;;;;;;2.30;1.40;;;;;;;;;;5069729;28;20448;-57
2023/10/04 01:45:15;;;;;;;4.77;1.53;;;;;;;;;;5069990;28;20573;-57
2023/10/04 01:47:43;;;;;;;3.07;1.60;;;;;;;;;;5062745;28;20452;-57
2023/10/04 01:50:11;;;;;;;2.97;1.10;;;;;;;;;;5071633;28;20559;-59
2023/10/04 01:52:39;;;;;;;2.73;1.40;;;;;;;;;;5073974;28;20532;-57
2023/10/04 01:55:10;;;;;;;2.60;1.03;;;;;;;;;;5073991;28;20999;-57
2023/10/04 01:57:39;;;;;;;2.60;1.17;;;;;;;;;;5073738;28;20535;-58
2023/10/04 02:00:09;;;;;;;3.07;1.40;;;;;;;;;;5073588;28;21069;-58
2023/10/04 02:02:38;;;;;;;4.20;1.50;;;;;;;;;;5073064;28;20459;-57
2023/10/04 02:05:06;;;;;;;2.30;1.20;;;;;;;;;;5072156;28;20483;-56
2023/10/04 02:07:34;;;;;;;2.70;1.20;;;;;;;;;;5073651;28;20444;-59
2023/10/04 02:10:02;;;;;;;2.60;1.50;;;;;;;;;;5073141;28;20833;-58
2023/10/04 02:12:29;;;;;;;3.00;1.40;;;;;;;;;;5073016;28;20960;-58
2023/10/04 02:14:58;;;;;;;2.60;1.33;;;;;;;;;;5073233;28;20444;-57
2023/10/04 02:17:25;;;;;;;3.70;1.90;;;;;;;;;;5073430;28;20831;-57
2023/10/04 02:19:54;;;;;;;2.33;1.30;;;;;;;;;;5073084;28;20483;-57
2023/10/04 02:22:22;;;;;;;2.63;1.30;;;;;;;;;;5073103;28;20448;-57
2023/10/04 02:24:50;;;;;;;4.00;1.63;;;;;;;;;;5073431;28;20966;-58
2023/10/04 02:27:19;;;;;;;2.67;1.47;;;;;;;;;;5073380;28;20878;-56
2023/10/04 02:29:47;;;;;;;3.77;1.80;;;;;;;;;;5073124;28;20970;-57
2023/10/04 02:32:16;;;;;;;3.30;1.30;;;;;;;;;;5073006;28;20478;-59
2023/10/04 02:34:44;;;;;;;3.10;1.47;;;;;;;;;;5073364;28;20559;-57
2023/10/04 02:37:12;;;;;;;5.53;1.50;;;;;;;;;;5071105;28;20436;-57
2023/10/04 02:39:39;;;;;;;3.00;1.40;;;;;;;;;;5061501;28;20483;-57
2023/10/04 02:42:09;;;;;;;2.83;1.50;;;;;;;;;;5064412;28;20444;-59
2023/10/04 02:44:37;;;;;;;3.00;1.60;;;;;;;;;;5072869;28;20470;-57
2023/10/04 02:47:06;;;;;;;2.67;1.20;;;;;;;;;;5072966;28;20519;-57
2023/10/04 02:49:37;;;;;;;2.60;1.37;;;;;;;;;;5072667;28;20460;-57
2023/10/04 02:52:06;;;;;;;4.63;1.57;;;;;;;;;;5072546;28;20480;-57
2023/10/04 02:54:33;;;;;;;2.50;1.50;;;;;;;;;;5069814;28;21136;-57
2023/10/04 02:57:03;;;;;;;3.17;1.47;;;;;;;;;;5067664;28;20432;-57
2023/10/04 02:59:34;;;;;;;5.90;1.70;;;;;;;;;;5070863;28;21179;-57
2023/10/04 03:02:03;;;;;;;3.33;1.60;;;;;;;;;;5069737;28;20951;-58
2023/10/04 03:04:30;;;;;;;2.90;1.43;;;;;;;;;;5070624;28;20476;-58
2023/10/04 03:07:00;;;;;;;2.83;1.50;;;;;;;;;;5071308;28;20448;-58
2023/10/04 03:09:27;;;;;;;2.77;1.60;;;;;;;;;;5070875;28;20461;-57
2023/10/04 03:11:55;;;;;;;2.90;1.40;;;;;;;;;;5070879;28;20523;-57
2023/10/04 03:14:24;;;;;;;2.07;1.10;;;;;;;;;;5071780;28;20947;-58
2023/10/04 03:16:51;;;;;;;2.97;1.60;;;;;;;;;;5070875;28;20468;-57
2023/10/04 03:19:19;;;;;;;3.33;1.67;;;;;;;;;;5070511;28;20580;-58
2023/10/04 03:21:46;;;;;;;2.93;1.80;;;;;;;;;;5053813;28;20502;-57
2023/10/04 03:24:18;;;;;;;2.90;1.47;;;;;;;;;;5070833;28;20456;-57
2023/10/04 03:26:46;;;;;;;2.30;1.43;;;;;;;;;;5070749;28;20440;-57
2023/10/04 03:29:14;;;;;;;2.80;1.30;;;;;;;;;;5070362;28;20855;-58
2023/10/04 03:31:42;;;;;;;3.07;1.63;;;;;;;;;;5072124;28;20526;-57
2023/10/04 03:34:09;;;;;;;2.53;1.27;;;;;;;;;;5072014;28;21217;-57
2023/10/04 03:36:39;;;;;;;2.87;1.43;;;;;;;;;;5071714;28;21007;-57
2023/10/04 03:39:09;;;;;;;3.43;1.90;;;;;;;;;;5066892;28;20477;-55
2023/10/04 03:41:42;;;;;;;4.60;2.20;;;;;;;;;;5070838;28;20539;-56
2023/10/04 03:44:09;;;;;;;2.20;1.40;;;;;;;;;;5071845;28;20936;-55
2023/10/04 03:46:37;;;;;;;3.70;2.37;;;;;;;;;;5072035;28;20460;-55
2023/10/04 03:49:06;;;;;;;5.13;1.93;;;;;;;;;;5071712;28;20476;-56
2023/10/04 03:51:33;;;;;;;3.83;1.50;;;;;;;;;;5071020;28;20455;-55
2023/10/04 03:54:05;;;;;;;3.10;1.87;;;;;;;;;;5070558;28;20866;-55
2023/10/04 03:56:33;;;;;;;6.00;3.30;;;;;;;;;;5061971;28;21007;-55
2023/10/04 03:59:03;;;;;;;3.50;1.83;;;;;;;;;;5068672;28;20550;-56
2023/10/04 04:01:31;;;;;;;2.97;1.93;;;;;;;;;;5068607;28;20448;-57
2023/10/04 04:04:03;;;;;;;5.83;1.70;;;;;;;;;;5069053;28;20448;-56
2023/10/04 04:06:30;;;;;;;2.27;1.50;;;;;;;;;;5068734;28;20715;-55
2023/10/04 04:09:01;;;;;;;3.10;1.73;;;;;;;;;;5068758;28;20813;-55
2023/10/04 04:11:28;;;;;;;4.07;2.30;;;;;;;;;;5069374;28;20449;-57
2023/10/04 04:13:57;;;;;;;3.93;2.33;;;;;;;;;;5063798;28;20494;-57
2023/10/04 04:16:26;;;;;;;3.10;2.20;;;;;;;;;;5068041;28;20826;-56
2023/10/04 04:18:54;;;;;;;4.17;2.60;;;;;;;;;;5067762;28;20486;-56
2023/10/04 04:21:22;;;;;;;2.97;2.27;;;;;;;;;;5067357;28;20451;-57
2023/10/04 04:23:50;;;;;;;3.00;2.00;;;;;;;;;;5068478;28;20444;-56
2023/10/04 04:26:17;;;;;;;5.40;2.27;;;;;;;;;;5067308;28;20627;-56
2023/10/04 04:28:44;;;;;;;3.47;2.30;;;;;;;;;;5067121;28;20496;-55
2023/10/04 04:31:14;;;;;;;3.17;2.20;;;;;;;;;;5067160;28;20452;-56
2023/10/04 04:33:43;;;;;;;4.97;3.33;;;;;;;;;;5067578;28;20822;-57
2023/10/04 04:36:18;;;;;;;6.63;2.93;;;;;;;;;;5059052;28;20480;-55
2023/10/04 04:38:47;;;;;;;4.33;2.80;;;;;;;;;;5067622;28;21049;-55
2023/10/04 04:41:20;;;;;;;3.57;2.80;;;;;;;;;;5067310;28;20444;-57
2023/10/04 04:43:49;;;;;;;3.30;2.57;;;;;;;;;;5067261;28;20459;-57
2023/10/04 04:46:18;;;;;;;3.10;2.03;;;;;;;;;;5049236;28;20454;-57
2023/10/04 04:48:47;;;;;;;4.67;2.27;;;;;;;;;;5072833;22;20493;-89
2023/10/04 04:51:15;;;;;;;3.03;2.00;;;;;;;;;;5068618;28;20468;-88
2023/10/04 04:53:43;;;;;;;2.83;2.07;;;;;;;;;;5067738;28;20488;-89
2023/10/04 04:56:12;;;;;;;3.60;2.23;;;;;;;;;;5067967;28;20514;-88
2023/10/04 04:58:41;;;;;;;3.20;2.50;;;;;;;;;;5067359;28;20874;-88
2023/10/04 05:01:11;;;;;;;4.73;3.17;;;;;;;;;;5069460;28;20456;-88
2023/10/04 05:03:41;;;;;;;4.20;3.07;;;;;;;;;;5069709;28;20453;-88
2023/10/04 05:06:13;;;;;;;7.40;3.60;;;;;;;;;;5063272;28;20464;-88
2023/10/04 05:08:40;;;;;;;3.67;2.73;;;;;;;;;;5064311;28;21109;-88
2023/10/04 05:11:09;;;;;;;5.03;3.17;;;;;;;;;;5068147;28;20467;-89
2023/10/04 05:13:36;;;;;;;4.13;2.83;;;;;;;;;;5065652;28;20466;-89
2023/10/04 05:16:04;;;;;;;4.40;3.47;;;;;;;;;;5064769;28;20518;-88
2023/10/04 05:18:32;;;;;;;4.13;2.80;;;;;;;;;;5069426;28;20460;-89
2023/10/04 05:21:00;;;;;;;4.53;2.60;;;;;;;;;;5068666;28;20476;-88
2023/10/04 05:23:30;;;;;;;5.80;3.00;;;;;;;;;;5068711;28;20445;-87
2023/10/04 05:25:57;;;;;;;4.77;2.90;;;;;;;;;;5068454;28;20885;-87
2023/10/04 05:28:27;;;;;;;3.07;2.70;;;;;;;;;;5070158;28;20448;-86
2023/10/04 05:30:55;;;;;;;4.30;2.80;;;;;;;;;;5070632;28;20523;-89
2023/10/04 05:33:23;;;;;;;4.07;3.03;;;;;;;;;;5069304;28;20501;-88
2023/10/04 05:35:53;;;;;;;3.20;2.70;;;;;;;;;;5059261;28;20469;-86
2023/10/04 05:38:22;;;;;;;4.27;2.90;;;;;;;;;;5064194;28;20879;-86
2023/10/04 05:40:50;;;;;;;4.10;3.00;;;;;;;;;;5065388;28;20491;-87
2023/10/04 05:43:18;;;;;;;4.60;3.17;;;;;;;;;;5068361;28;20460;-87
2023/10/04 05:45:47;;;;;;;5.20;3.60;;;;;;;;;;5055584;28;20452;-87
2023/10/04 05:48:15;;;;;;;5.47;3.83;;;;;;;;;;5070777;28;20444;-88
2023/10/04 05:50:43;;;;;;;5.13;3.77;;;;;;;;;;5070082;28;20859;-89
2023/10/04 05:53:14;;;;;;;6.80;4.13;;;;;;;;;;5070521;28;20444;-88
2023/10/04 05:55:42;;;;;;;5.70;3.80;;;;;;;;;;5063204;28;20847;-90
2023/10/04 05:58:11;;;;;;;5.63;3.87;;;;;;;;;;5062534;28;20735;-88
2023/10/04 06:00:40;;;;;;;3.93;3.20;;;;;;;;;;5068481;28;21002;-89
2023/10/04 06:03:08;;;;;;;3.70;3.20;;;;;;;;;;5061608;28;20787;-88
2023/10/04 06:05:37;;;;;;;6.83;3.47;;;;;;;;;;5069360;28;20456;-88
2023/10/04 06:08:06;;;;;;;5.70;3.60;;;;;;;;;;5065920;28;20457;-89
2023/10/04 06:10:34;;;;;;;4.77;2.90;;;;;;;;;;5067828;28;20502;-88
2023/10/04 06:13:02;;;;;;;4.57;3.70;;;;;;;;;;5061066;28;20505;-89
2023/10/04 06:15:31;;;;;;;5.60;4.03;;;;;;;;;;5068448;28;21017;-87
2023/10/04 06:17:59;;;;;;;6.30;4.10;;;;;;;;;;5069653;28;20432;-86
2023/10/04 06:20:28;;;;;;;5.63;3.90;;;;;;;;;;5064496;28;20478;-85
2023/10/04 06:22:56;;;;;;;3.97;3.50;;;;;;;;;;5068712;28;20535;-86
2023/10/04 06:25:24;;;;;;;4.63;3.60;;;;;;;;;;5062065;28;20456;-85
2023/10/04 06:27:52;;;;;;;6.60;4.00;;;;;;;;;;5070221;28;20510;-86
2023/10/04 06:30:22;;;;;;;6.07;4.03;;;;;;;;;;5069422;28;20451;-87
2023/10/04 06:32:51;;;;;;;6.07;4.50;;;;;;;;;;5069060;28;20455;-87
2023/10/04 06:35:22;;;;;;;6.40;4.20;;;;;;;;;;5061852;28;20445;-87
2023/10/04 06:37:50;;;;;;;5.07;4.17;;;;;;;;;;5071226;28;20463;-89
2023/10/04 06:40:19;;;;;;;4.80;4.30;;;;;;;;;;5071772;28;20929;-88
2023/10/04 06:42:47;;;;;;;5.60;4.27;;;;;;;;;;5072455;28;20457;-89
2023/10/04 06:45:14;;;;;;;5.23;4.23;;;;;;;;;;5073307;28;20535;-86
2023/10/04 06:47:43;;;;;;;6.90;4.47;;;;;;;;;;5073991;28;20460;-88
2023/10/04 06:50:14;;;;;;;7.23;4.90;;;;;;;;;;5073614;28;20474;-87
2023/10/04 06:52:42;;;;;;;6.63;5.30;;;;;;;;;;5066013;28;20472;-89
2023/10/04 06:55:11;;;;;;;7.10;4.17;;;;;;;;;;5064371;28;20960;-89
2023/10/04 06:57:39;;;;;;;5.70;4.00;;;;;;;;;;5067704;28;20522;-88
2023/10/04 07:00:13;;;;;;;5.23;4.30;;;;;;;;;;5071974;28;20626;-88
2023/10/04 07:02:43;;;;;;;4.67;3.60;;;;;;;;;;5071826;28;20701;-89
2023/10/04 07:05:10;;;;;;;5.50;4.13;;;;;;;;;;5071893;28;20869;-88
2023/10/04 07:07:39;;;;;;;4.80;3.80;;;;;;;;;;5071322;28;20503;-88
2023/10/04 07:10:08;;;;;;;5.93;4.13;;;;;;;;;;5072842;28;20441;-90
2023/10/04 07:12:37;;;;;;;5.50;3.87;;;;;;;;;;5068432;28;20455;-88
2023/10/04 07:15:04;;;;;;;5.80;4.17;;;;;;;;;;5062891;28;20819;-89
2023/10/04 07:17:31;;;;;;;6.73;4.13;;;;;;;;;;5073151;28;21005;-90
2023/10/04 07:19:59;;;;;;;5.67;3.37;;;;;;;;;;5072096;28;20981;-90
2023/10/04 07:22:29;;;;;;;4.50;2.70;;;;;;;;;;5064916;28;20441;-89
2023/10/04 07:24:58;;;;;;;5.10;3.20;;;;;;;;;;5061235;28;20454;-88
2023/10/04 07:27:26;;;;;;;5.43;3.30;;;;;;;;;;5071419;28;20897;-90
2023/10/04 07:29:54;;;;;;;5.00;3.20;;;;;;;;;;5070557;28;20847;-88
2023/10/04 07:32:21;;;;;;;4.43;2.87;;;;;;;;;;5064516;28;20461;-88
2023/10/04 07:34:48;;;;;;;4.67;3.53;;;;;;;;;;5064316;28;20453;-88
2023/10/04 07:37:16;;;;;;;6.87;3.40;;;;;;;;;;5064587;28;20983;-90
2023/10/04 07:39:43;;;;;;;6.00;3.80;;;;;;;;;;5062590;28;20528;-88
2023/10/04 07:42:12;;;;;;;3.80;3.40;;;;;;;;;;5076073;28;20444;-88
2023/10/04 07:44:39;;;;;;;5.10;4.60;;;;;;;;;;5078194;28;20538;-88
2023/10/04 07:47:07;;;;;;;5.13;4.37;;;;;;;;;;5070405;28;20975;-87
2023/10/04 07:49:34;;;;;;;4.63;4.13;;;;;;;;;;5070985;28;20505;-89
2023/10/04 07:52:03;;;;;;;9.13;3.43;;;;;;;;;;5068569;28;20440;-89
2023/10/04 07:54:31;;;;;;;4.90;3.30;;;;;;;;;;5068946;28;20957;-89
2023/10/04 07:56:58;;;;;;;5.20;3.80;;;;;;;;;;5065723;28;20450;-88
2023/10/04 07:59:27;;;;;;;4.40;3.70;;;;;;;;;;5079483;28;20432;-88
2023/10/04 08:01:55;;;;;;;7.33;3.50;;;;;;;;;;5082275;28;20836;-88
2023/10/04 08:04:22;;;;;;;5.60;3.80;;;;;;;;;;5068950;28;20498;-88
2023/10/04 08:06:52;;;;;;;6.23;3.60;;;;;;;;;;5073368;28;20487;-88
2023/10/04 08:09:19;;;;;;;6.37;3.87;;;;;;;;;;5073934;28;20452;-89
2023/10/04 08:11:47;;;;;;;6.47;3.67;;;;;;;;;;5072285;28;20488;-88
2023/10/04 08:14:14;;;;;;;5.33;4.83;;;;;;;;;;5072003;28;20437;-89
2023/10/04 08:16:43;;;;;;;5.77;4.63;;;;;;;;;;5076324;28;20578;-88
2023/10/04 08:19:11;;;;;;;6.47;4.07;;;;;;;;;;5074944;28;20448;-89
2023/10/04 08:21:38;;;;;;;5.83;3.80;;;;;;;;;;5062622;28;20472;-90
2023/10/04 08:24:06;;;;;;;5.87;3.90;;;;;;;;;;5067320;28;20495;-89
2023/10/04 08:26:33;;;;;;;6.90;4.30;;;;;;;;;;5066614;28;20506;-88
2023/10/04 08:29:00;;;;;;;4.30;3.47;;;;;;;;;;5075760;28;20432;-87
2023/10/04 08:31:27;;;;;;;4.90;3.30;;;;;;;;;;5070474;28;20420;-89
2023/10/04 08:33:56;;;;;;;4.50;3.13;;;;;;;;;;5070124;28;20452;-89
2023/10/04 08:36:23;;;;;;;6.80;4.13;;;;;;;;;;5062366;28;20825;-89
2023/10/04 08:38:51;;;;;;;7.07;3.83;;;;;;;;;;5073119;28;20517;-89
2023/10/04 08:41:18;;;;;;;8.00;4.13;;;;;;;;;;5069912;28;20529;-89
2023/10/04 08:43:47;;;;;;;5.57;3.67;;;;;;;;;;5069179;28;20449;-90
2023/10/04 08:46:17;;;;;;;6.33;3.97;;;;;;;;;;5080424;28;20495;-90
2023/10/04 08:48:49;;;;;;;6.13;3.90;;;;;;;;;;5074492;28;20509;-90
2023/10/04 08:51:23;;;;;;;4.87;4.10;;;;;;;;;;5065496;28;20433;-90
2023/10/04 08:53:57;;;;;;;6.00;4.00;;;;;;;;;;5075087;28;20852;-90
2023/10/04 08:56:26;;;;;;;9.00;4.27;;;;;;;;;;5069160;28;20460;-89
2023/10/04 08:58:54;;;;;;;4.60;3.40;;;;;;;;;;5064925;28;20453;-89
2023/10/04 09:01:23;;;;;;;5.33;3.73;;;;;;;;;;5065955;28;20500;-90
2023/10/04 09:03:52;;;;;;;5.13;3.80;;;;;;;;;;5064540;28;20446;-89
2023/10/04 09:06:22;;;;;;;5.80;4.10;;;;;;;;;;5063304;28;20831;-89
2023/10/04 09:08:49;;;;;;;4.83;3.17;;;;;;;;;;5071477;28;20455;-89
2023/10/04 09:11:17;;;;;;;6.00;3.80;;;;;;;;;;5065299;28;20455;-89
2023/10/04 09:13:47;;;;;;;4.97;3.90;;;;;;;;;;5069986;28;20440;-89
2023/10/04 09:16:24;;;;;;;6.00;3.93;;;;;;;;;;5063358;28;20815;-89
2023/10/04 09:19:08;;;;;;;4.33;3.50;;;;;;;;;;5063302;28;20437;-89
2023/10/04 09:21:38;;;;;;;4.80;3.83;;;;;;;;;;5063065;28;20473;-88
2023/10/04 09:24:08;;;;;;;4.80;3.90;;;;;;;;;;5066701;28;20508;-89
2023/10/04 09:26:36;;;;;;;5.83;4.00;;;;;;;;;;5069295;28;20462;-88
2023/10/04 09:29:04;;;;;;;5.00;3.53;;;;;;;;;;5068239;28;20445;-88
2023/10/04 09:31:31;;;;;;;5.40;3.67;;;;;;;;;;5067620;28;20444;-88
2023/10/04 09:34:14;;;;;;;6.10;4.23;;;;;;;;;;5070554;28;20465;-87
2023/10/04 09:36:43;;;;;;;3.50;2.80;;;;;;;;;;5072162;28;20842;-89
2023/10/04 09:39:13;;;;;;;5.57;3.13;;;;;;;;;;5065901;28;20520;-87
2023/10/04 09:41:42;;;;;;;5.10;3.40;;;;;;;;;;5066342;28;20495;-85
2023/10/04 09:44:23;;;;;;;5.40;3.97;;;;;;;;;;5077788;28;21081;-88
2023/10/04 09:46:54;;;;;;;3.30;2.80;;;;;;;;;;5067518;28;20487;-86
2023/10/04 09:49:22;;;;;;;6.30;2.90;;;;;;;;;;5076379;28;20824;-88
2023/10/04 09:51:51;;;;;;;4.13;3.00;;;;;;;;;;5066366;28;20529;-88
2023/10/04 09:54:18;;;;;;;4.97;3.20;;;;;;;;;;5065462;28;20529;-88
2023/10/04 09:56:47;;;;;;;3.70;2.73;;;;;;;;;;5059602;28;20460;-87
2023/10/04 09:59:19;;;;;;;4.20;2.47;;;;;;;;;;5062843;28;20471;-87
2023/10/04 10:01:47;;;;;;;4.50;2.70;;;;;;;;;;5065513;28;20946;-88
2023/10/04 10:04:18;;;;;;;4.37;2.60;;;;;;;;;;5070920;28;20432;-87
2023/10/04 10:06:51;;;;;;;4.10;2.40;;;;;;;;;;5065377;28;20460;-87
2023/10/04 10:09:25;;;;;;;3.60;2.73;;;;;;;;;;5079446;28;20485;-87
2023/10/04 10:11:53;;;;;;;3.53;2.30;;;;;;;;;;5077668;28;20527;-88
2023/10/04 10:14:22;;;;;;;3.83;2.20;;;;;;;;;;5074964;28;20832;-88
2023/10/04 10:16:54;;;;;;;2.83;2.17;;;;;;;;;;5080148;28;20456;-88
2023/10/04 10:19:23;;;;;;;5.70;2.60;;;;;;;;;;5074504;28;20452;-88
2023/10/04 10:22:08;;;;;;;6.87;3.20;;;;;;;;;;5089076;28;20503;-87
2023/10/04 10:24:44;;;;;;;4.93;3.00;;;;;;;;;;5090471;28;20451;-88
2023/10/04 10:27:13;;;;;;;4.30;2.20;;;;;;;;;;5090746;28;20527;-88
2023/10/04 10:29:42;;;;;;;3.67;2.47;;;;;;;;;;5085001;28;20439;-88
2023/10/04 10:32:14;;;;;;;4.87;2.80;;;;;;;;;;5092136;28;20439;-88
2023/10/04 10:34:41;;;;;;;4.30;2.57;;;;;;;;;;5073943;28;20432;-89
2023/10/04 10:37:10;;;;;;;3.90;2.87;;;;;;;;;;5072482;28;20479;-88
2023/10/04 10:39:45;;;;;;;3.90;3.00;;;;;;;;;;5080696;28;20522;-88
2023/10/04 10:42:13;;;;;;;3.40;2.20;;;;;;;;;;5074915;28;20477;-87
2023/10/04 10:44:41;;;;;;;3.50;2.33;;;;;;;;;;5085587;28;20492;-89
2023/10/04 10:47:14;;;;;;;3.80;2.60;;;;;;;;;;5090244;28;20447;-88
2023/10/04 10:49:41;;;;;;;4.10;2.40;;;;;;;;;;5078077;28;20532;-86
2023/10/04 10:52:10;;;;;;;4.53;2.50;;;;;;;;;;5067106;28;20448;-86
2023/10/04 10:54:37;;;;;;;3.80;2.10;;;;;;;;;;5068248;28;20437;-87
2023/10/04 10:57:06;;;;;;;3.00;2.00;;;;;;;;;;5074776;28;20594;-86
2023/10/04 10:59:34;;;;;;;4.03;2.13;;;;;;;;;;5075495;28;20542;-87
2023/10/04 11:02:05;;;;;;;2.90;2.20;;;;;;;;;;5076901;28;20908;-87
2023/10/04 11:04:32;;;;;;;3.70;1.90;;;;;;;;;;5079261;28;20440;-87
2023/10/04 11:06:59;;;;;;;2.80;1.70;;;;;;;;;;5066567;28;20632;-86
2023/10/04 11:09:27;;;;;;;3.30;2.03;;;;;;;;;;5071504;28;20444;-87
2023/10/04 11:11:56;;;;;;;3.40;1.90;;;;;;;;;;5082381;28;20843;-88
2023/10/04 11:14:25;;;;;;;5.30;2.10;;;;;;;;;;5072892;28;20980;-87
2023/10/04 11:16:52;;;;;;;3.50;1.40;;;;;;;;;;5063568;28;20454;-87
2023/10/04 11:19:19;;;;;;;3.73;2.07;;;;;;;;;;5066185;28;20506;-88
2023/10/04 11:21:48;;;;;;;3.40;1.80;;;;;;;;;;5074126;28;20557;-88
2023/10/04 11:24:15;;;;;;;2.70;1.40;;;;;;;;;;5078295;28;20457;-87
2023/10/04 11:26:43;;;;;;;3.00;1.60;;;;;;;;;;5072781;28;20522;-87
2023/10/04 11:29:11;;;;;;;3.80;1.97;;;;;;;;;;5071892;28;20440;-87
2023/10/04 11:31:40;;;;;;;3.30;1.57;;;;;;;;;;5070907;28;20855;-87
2023/10/04 11:34:08;;;;;;;2.80;1.60;;;;;;;;;;5071726;28;20432;-88
2023/10/04 11:36:36;;;;;;;4.23;2.20;;;;;;;;;;5065053;28;20472;-87
2023/10/04 11:39:12;;;;;;;6.67;2.57;;;;;;;;;;5071566;28;20451;-88
2023/10/04 11:41:40;;;;;;;4.27;2.50;;;;;;;;;;5068276;28;20462;-88
2023/10/04 11:44:08;;;;;;;3.77;2.67;;;;;;;;;;5065463;28;20544;-89
2023/10/04 11:46:54;;;;;;;3.10;1.90;;;;;;;;;;5071022;28;20512;-88
2023/10/04 11:49:23;;;;;;;3.60;2.07;;;;;;;;;;5062620;28;20958;-88
2023/10/04 11:51:51;;;;;;;3.67;2.37;;;;;;;;;;5065030;28;20453;-88
2023/10/04 11:54:18;;;;;;;4.27;2.17;;;;;;;;;;5079233;28;20451;-89
2023/10/04 11:56:46;;;;;;;3.63;1.90;;;;;;;;;;5087410;28;20459;-89
2023/10/04 11:59:15;;;;;;;3.90;2.20;;;;;;;;;;5071076;28;20512;-88
2023/10/04 12:01:44;;;;;;;4.77;2.70;;;;;;;;;;5066962;28;21326;-88
2023/10/04 12:04:12;;;;;;;8.20;5.40;;;;;;;;;;5075954;28;20454;-83
2023/10/04 12:06:42;;;;;;;3.47;1.90;;;;;;;;;;5082826;28;20459;-84
2023/10/04 12:09:09;;;;;;;3.17;2.10;;;;;;;;;;5075151;28;20463;-84
2023/10/04 12:11:37;;;;;;;4.43;2.53;;;;;;;;;;5078311;28;20497;-84
2023/10/04 12:14:05;;;;;;;4.60;2.37;;;;;;;;;;5076352;28;20443;-84
2023/10/04 12:16:34;;;;;;;3.60;1.87;;;;;;;;;;5078281;28;20518;-84
2023/10/04 12:19:02;;;;;;;4.60;2.20;;;;;;;;;;5074696;28;20476;-84
2023/10/04 12:21:31;;;;;;;3.70;2.43;;;;;;;;;;5071439;28;20477;-84
2023/10/04 12:23:59;;;;;;;3.67;2.07;;;;;;;;;;5076902;28;20448;-84
2023/10/04 12:26:27;;;;;;;3.33;2.50;;;;;;;;;;5080167;28;20460;-84
2023/10/04 12:28:54;;;;;;;3.93;2.50;;;;;;;;;;5074036;28;20435;-84
2023/10/04 12:31:22;;;;;;;5.03;2.23;;;;;;;;;;5065051;28;20734;-84
2023/10/04 12:33:51;;;;;;;3.30;2.40;;;;;;;;;;5068706;28;20432;-84
2023/10/04 12:36:19;;;;;;;3.10;1.97;;;;;;;;;;5068055;28;20892;-84
2023/10/04 12:38:47;;;;;;;3.00;2.00;;;;;;;;;;5068386;28;20503;-84
2023/10/04 12:41:16;;;;;;;3.90;2.47;;;;;;;;;;5068975;28;20444;-84
2023/10/04 12:43:44;;;;;;;2.83;1.77;;;;;;;;;;5068171;28;20856;-84
2023/10/04 12:46:11;;;;;;;4.37;2.80;;;;;;;;;;5065734;28;20527;-84
2023/10/04 12:48:38;;;;;;;4.27;2.10;;;;;;;;;;5059019;28;20433;-83
2023/10/04 12:51:06;;;;;;;3.33;2.40;;;;;;;;;;5059070;28;20487;-84
2023/10/04 12:53:34;;;;;;;4.10;2.50;;;;;;;;;;5069201;28;20532;-84
2023/10/04 12:56:03;;;;;;;3.50;2.10;;;;;;;;;;5053855;28;20527;-83
2023/10/04 12:58:33;;;;;;;5.60;2.67;;;;;;;;;;5062020;28;20903;-84
2023/10/04 13:01:04;;;;;;;4.80;2.50;;;;;;;;;;5070206;28;20470;-84
2023/10/04 13:03:32;;;;;;;4.17;2.20;;;;;;;;;;5072061;28;20553;-84
2023/10/04 13:05:59;;;;;;;3.63;2.63;;;;;;;;;;5067155;28;20473;-84
2023/10/04 13:08:27;;;;;;;2.93;1.83;;;;;;;;;;5060357;28;20563;-84
2023/10/04 13:10:56;;;;;;;4.83;2.60;;;;;;;;;;5052192;28;20871;-84
2023/10/04 13:13:24;;;;;;;4.10;2.23;;;;;;;;;;5052107;28;20511;-84
2023/10/04 13:15:53;;;;;;;5.27;2.50;;;;;;;;;;5051166;28;20959;-84
2023/10/04 13:18:21;;;;;;;6.80;2.80;;;;;;;;;;5066505;28;20456;-84
2023/10/04 13:20:50;;;;;;;18.63;13.40;;;;;;;;;;5050644;28;20536;-84
2023/10/04 13:23:17;;;;;;;6.67;3.30;;;;;;;;;;5056307;28;20842;-84
2023/10/04 13:25:45;;;;;;;3.20;2.13;;;;;;;;;;5062810;28;20449;-83
2023/10/04 13:28:17;;;;;;;5.07;2.40;;;;;;;;;;5057528;28;20866;-84
2023/10/04 13:30:45;;;;;;;3.03;2.13;;;;;;;;;;5056036;28;20524;-84
2023/10/04 13:33:15;;;;;;;4.40;2.40;;;;;;;;;;5059729;28;20436;-84
2023/10/04 13:35:42;;;;;;;4.10;2.53;;;;;;;;;;5061590;28;20919;-84
2023/10/04 13:38:09;;;;;;;4.93;2.83;;;;;;;;;;5059664;28;20527;-84
2023/10/04 13:40:36;;;;;;;4.80;2.50;;;;;;;;;;5058287;28;20473;-84
2023/10/04 13:43:05;;;;;;;3.73;2.30;;;;;;;;;;5065960;28;20473;-84
2023/10/04 13:45:33;;;;;;;3.00;2.10;;;;;;;;;;5066075;28;20471;-84
2023/10/04 13:48:07;;;;;;;3.00;1.47;;;;;;;;;;5071298;28;20672;-84
2023/10/04 13:50:37;;;;;;;4.40;2.30;;;;;;;;;;5064864;28;20460;-84
2023/10/04 13:53:05;;;;;;;3.10;1.90;;;;;;;;;;5057098;28;20437;-84
2023/10/04 13:55:32;;;;;;;3.50;1.83;;;;;;;;;;5071989;28;20527;-84
2023/10/04 13:58:01;;;;;;;4.43;2.43;;;;;;;;;;5054603;28;20448;-84
2023/10/04 14:00:28;;;;;;;3.10;2.03;;;;;;;;;;5059213;28;20845;-84
2023/10/04 14:02:58;;;;;;;3.50;2.10;;;;;;;;;;5063858;28;21002;-84
2023/10/04 14:05:26;;;;;;;3.30;2.33;;;;;;;;;;5057583;28;20476;-84
2023/10/04 14:07:55;;;;;;;3.73;2.60;;;;;;;;;;5061371;28;20438;-84
2023/10/04 14:10:24;;;;;;;3.97;2.47;;;;;;;;;;5061913;28;20964;-83
2023/10/04 14:12:53;;;;;;;4.50;2.67;;;;;;;;;;5059099;28;20457;-84
2023/10/04 14:15:21;;;;;;;2.83;1.77;;;;;;;;;;5064239;28;20432;-84
2023/10/04 14:17:49;;;;;;;3.77;1.87;;;;;;;;;;5067102;28;20480;-84
2023/10/04 14:20:17;;;;;;;4.53;2.33;;;;;;;;;;5069393;28;20476;-84
2023/10/04 14:22:45;;;;;;;2.73;2.00;;;;;;;;;;5067413;28;20546;-85
2023/10/04 14:25:14;;;;;;;6.07;2.70;;;;;;;;;;5071432;28;20443;-88
2023/10/04 14:27:43;;;;;;;3.53;2.30;;;;;;;;;;5063486;28;20527;-90
2023/10/04 14:30:12;;;;;;;3.73;2.10;;;;;;;;;;5064854;28;20436;-91
2023/10/04 14:32:40;;;;;;;6.50;2.07;;;;;;;;;;5073214;28;20428;-89
2023/10/04 14:35:10;;;;;;;3.20;1.73;;;;;;;;;;5071011;28;20954;-90
2023/10/04 14:37:37;;;;;;;3.10;1.67;;;;;;;;;;5059864;28;20471;-91
2023/10/04 14:40:10;;;;;;;4.13;1.80;;;;;;;;;;5072643;28;20444;-90
2023/10/04 14:42:39;;;;;;;2.77;1.93;;;;;;;;;;5070524;28;20480;-90
2023/10/04 14:45:08;;;;;;;3.37;1.77;;;;;;;;;;5079612;28;20511;-90
2023/10/04 14:47:35;;;;;;;5.10;2.30;;;;;;;;;;5075720;28;20452;-90
2023/10/04 14:50:04;;;;;;;3.70;2.50;;;;;;;;;;5067908;28;20451;-90
2023/10/04 14:52:32;;;;;;;4.00;2.80;;;;;;;;;;5061026;28;20506;-91